sensor_id;sensor_type;location;lat;lon;timestamp;P1;durP1;ratioP1;P2;durP2;ratioP2
10701;SDS011;5402;50.004;8.246;2022-11-20T00:00:18;23.73;;;11.90;;
10701;SDS011;5402;50.004;8.246;2022-11-20T00:02:45;24.30;;;12.23;;
10701;SDS011;5402;50.004;8.246;2022-11-20T00:05:12;27.10;;;13.03;;
10701;SDS011;5402;50.004;8.246;2022-11-20T00:07:38;27.70;;;13.63;;
10701;SDS011;5402;50.004;8.246;2022-11-20T00:10:05;22.63;;;11.77;;
10701;SDS011;5402;50.004;8.246;2022-11-20T00:12:32;25.00;;;12.30;;
10701;SDS011;5402;50.004;8.246;2022-11-20T00:15:00;29.47;;;13.20;;
10701;SDS011;5402;50.004;8.246;2022-11-20T00:17:28;26.73;;;13.53;;
10701;SDS011;5402;50.004;8.246;2022-11-20T00:19:55;26.10;;;13.40;;
10701;SDS011;5402;50.004;8.246;2022-11-20T00:22:22;29.10;;;13.97;;
10701;SDS011;5402;50.004;8.246;2022-11-20T00:24:48;29.87;;;13.30;;
10701;SDS011;5402;50.004;8.246;2022-11-20T00:27:15;29.67;;;14.60;;
10701;SDS011;5402;50.004;8.246;2022-11-20T00:29:42;26.43;;;13.20;;
10701;SDS011;5402;50.004;8.246;2022-11-20T00:32:09;25.63;;;12.93;;
10701;SDS011;5402;50.004;8.246;2022-11-20T00:34:37;27.03;;;13.47;;
10701;SDS011;5402;50.004;8.246;2022-11-20T00:37:03;28.73;;;14.10;;
10701;SDS011;5402;50.004;8.246;2022-11-20T00:39:30;25.50;;;13.37;;
10701;SDS011;5402;50.004;8.246;2022-11-20T00:41:57;30.43;;;14.57;;
10701;SDS011;5402;50.004;8.246;2022-11-20T00:44:24;29.90;;;14.50;;
10701;SDS011;5402;50.004;8.246;2022-11-20T00:46:50;28.57;;;13.77;;
10701;SDS011;5402;50.004;8.246;2022-11-20T00:49:17;23.90;;;13.50;;
10701;SDS011;5402;50.004;8.246;2022-11-20T00:51:45;26.67;;;13.10;;
10701;SDS011;5402;50.004;8.246;2022-11-20T00:54:12;25.57;;;12.97;;
10701;SDS011;5402;50.004;8.246;2022-11-20T00:56:39;26.93;;;12.47;;
10701;SDS011;5402;50.004;8.246;2022-11-20T00:59:06;26.50;;;13.13;;
10701;SDS011;5402;50.004;8.246;2022-11-20T01:01:34;28.57;;;14.07;;
10701;SDS011;5402;50.004;8.246;2022-11-20T01:04:02;26.27;;;13.87;;
10701;SDS011;5402;50.004;8.246;2022-11-20T01:06:30;24.10;;;12.97;;
10701;SDS011;5402;50.004;8.246;2022-11-20T01:09:00;23.67;;;12.70;;
10701;SDS011;5402;50.004;8.246;2022-11-20T01:11:30;32.30;;;14.77;;
10701;SDS011;5402;50.004;8.246;2022-11-20T01:13:58;30.83;;;14.77;;
10701;SDS011;5402;50.004;8.246;2022-11-20T01:16:27;29.40;;;14.50;;
10701;SDS011;5402;50.004;8.246;2022-11-20T01:18:56;28.83;;;14.30;;
10701;SDS011;5402;50.004;8.246;2022-11-20T01:21:25;28.57;;;14.20;;
10701;SDS011;5402;50.004;8.246;2022-11-20T01:23:53;27.30;;;14.27;;
10701;SDS011;5402;50.004;8.246;2022-11-20T01:26:22;29.17;;;13.53;;
10701;SDS011;5402;50.004;8.246;2022-11-20T01:28:50;29.57;;;14.37;;
10701;SDS011;5402;50.004;8.246;2022-11-20T01:31:18;29.43;;;14.57;;
10701;SDS011;5402;50.004;8.246;2022-11-20T01:33:46;32.47;;;14.10;;
10701;SDS011;5402;50.004;8.246;2022-11-20T01:36:16;26.83;;;14.37;;
10701;SDS011;5402;50.004;8.246;2022-11-20T01:38:44;30.87;;;15.87;;
10701;SDS011;5402;50.004;8.246;2022-11-20T01:41:11;26.70;;;13.20;;
10701;SDS011;5402;50.004;8.246;2022-11-20T01:44:01;28.97;;;13.90;;
10701;SDS011;5402;50.004;8.246;2022-11-20T01:46:28;26.50;;;14.47;;
10701;SDS011;5402;50.004;8.246;2022-11-20T01:48:56;28.87;;;14.13;;
10701;SDS011;5402;50.004;8.246;2022-11-20T01:51:26;28.57;;;14.87;;
10701;SDS011;5402;50.004;8.246;2022-11-20T01:53:55;28.67;;;14.53;;
10701;SDS011;5402;50.004;8.246;2022-11-20T01:56:26;29.27;;;13.87;;
10701;SDS011;5402;50.004;8.246;2022-11-20T01:58:58;28.40;;;14.40;;
10701;SDS011;5402;50.004;8.246;2022-11-20T02:01:28;31.17;;;14.47;;
10701;SDS011;5402;50.004;8.246;2022-11-20T02:03:54;30.43;;;14.90;;
10701;SDS011;5402;50.004;8.246;2022-11-20T02:06:23;28.70;;;15.83;;
10701;SDS011;5402;50.004;8.246;2022-11-20T02:08:52;29.80;;;14.80;;
10701;SDS011;5402;50.004;8.246;2022-11-20T02:11:20;29.67;;;14.07;;
10701;SDS011;5402;50.004;8.246;2022-11-20T02:13:47;29.30;;;14.27;;
10701;SDS011;5402;50.004;8.246;2022-11-20T02:16:17;26.77;;;13.10;;
10701;SDS011;5402;50.004;8.246;2022-11-20T02:18:48;27.30;;;13.37;;
10701;SDS011;5402;50.004;8.246;2022-11-20T02:21:21;32.63;;;14.40;;
10701;SDS011;5402;50.004;8.246;2022-11-20T02:24:08;31.20;;;13.77;;
10701;SDS011;5402;50.004;8.246;2022-11-20T02:26:39;31.83;;;14.17;;
10701;SDS011;5402;50.004;8.246;2022-11-20T02:29:13;30.30;;;14.60;;
10701;SDS011;5402;50.004;8.246;2022-11-20T02:31:43;27.70;;;14.17;;
10701;SDS011;5402;50.004;8.246;2022-11-20T02:34:11;30.37;;;14.07;;
10701;SDS011;5402;50.004;8.246;2022-11-20T02:36:38;33.43;;;15.93;;
10701;SDS011;5402;50.004;8.246;2022-11-20T02:39:08;27.30;;;14.40;;
10701;SDS011;5402;50.004;8.246;2022-11-20T02:41:37;33.07;;;13.73;;
10701;SDS011;5402;50.004;8.246;2022-11-20T02:44:05;32.43;;;15.77;;
10701;SDS011;5402;50.004;8.246;2022-11-20T02:46:32;31.80;;;15.07;;
10701;SDS011;5402;50.004;8.246;2022-11-20T02:48:59;36.07;;;16.47;;
10701;SDS011;5402;50.004;8.246;2022-11-20T02:51:27;32.63;;;15.50;;
10701;SDS011;5402;50.004;8.246;2022-11-20T02:53:54;30.83;;;13.83;;
10701;SDS011;5402;50.004;8.246;2022-11-20T02:56:22;28.57;;;15.00;;
10701;SDS011;5402;50.004;8.246;2022-11-20T02:58:48;32.37;;;14.33;;
10701;SDS011;5402;50.004;8.246;2022-11-20T03:01:15;33.67;;;15.87;;
10701;SDS011;5402;50.004;8.246;2022-11-20T03:03:42;30.20;;;15.00;;
10701;SDS011;5402;50.004;8.246;2022-11-20T03:06:09;29.67;;;14.73;;
10701;SDS011;5402;50.004;8.246;2022-11-20T03:08:36;30.70;;;14.57;;
10701;SDS011;5402;50.004;8.246;2022-11-20T03:11:03;31.47;;;15.07;;
10701;SDS011;5402;50.004;8.246;2022-11-20T03:13:32;34.07;;;15.80;;
10701;SDS011;5402;50.004;8.246;2022-11-20T03:16:04;37.40;;;16.43;;
10701;SDS011;5402;50.004;8.246;2022-11-20T03:18:35;32.47;;;14.60;;
10701;SDS011;5402;50.004;8.246;2022-11-20T03:21:02;32.70;;;15.33;;
10701;SDS011;5402;50.004;8.246;2022-11-20T03:23:29;30.50;;;13.97;;
10701;SDS011;5402;50.004;8.246;2022-11-20T03:26:06;25.03;;;13.07;;
10701;SDS011;5402;50.004;8.246;2022-11-20T03:28:35;31.20;;;14.90;;
10701;SDS011;5402;50.004;8.246;2022-11-20T03:31:06;33.60;;;15.17;;
10701;SDS011;5402;50.004;8.246;2022-11-20T03:33:34;36.00;;;16.93;;
10701;SDS011;5402;50.004;8.246;2022-11-20T03:36:01;30.83;;;14.83;;
10701;SDS011;5402;50.004;8.246;2022-11-20T03:38:29;34.63;;;15.87;;
10701;SDS011;5402;50.004;8.246;2022-11-20T03:41:00;29.43;;;13.07;;
10701;SDS011;5402;50.004;8.246;2022-11-20T03:43:28;29.07;;;13.83;;
10701;SDS011;5402;50.004;8.246;2022-11-20T03:45:56;28.93;;;14.17;;
10701;SDS011;5402;50.004;8.246;2022-11-20T03:48:24;30.83;;;15.20;;
10701;SDS011;5402;50.004;8.246;2022-11-20T03:50:51;39.50;;;16.87;;
10701;SDS011;5402;50.004;8.246;2022-11-20T03:53:18;31.07;;;14.40;;
10701;SDS011;5402;50.004;8.246;2022-11-20T03:55:46;36.10;;;15.13;;
10701;SDS011;5402;50.004;8.246;2022-11-20T03:58:16;35.73;;;16.37;;
10701;SDS011;5402;50.004;8.246;2022-11-20T04:00:43;32.83;;;15.63;;
10701;SDS011;5402;50.004;8.246;2022-11-20T04:03:11;34.53;;;15.27;;
10701;SDS011;5402;50.004;8.246;2022-11-20T04:05:38;30.70;;;14.27;;
10701;SDS011;5402;50.004;8.246;2022-11-20T04:08:05;37.00;;;16.97;;
10701;SDS011;5402;50.004;8.246;2022-11-20T04:10:31;33.17;;;15.57;;
10701;SDS011;5402;50.004;8.246;2022-11-20T04:12:58;32.27;;;15.50;;
10701;SDS011;5402;50.004;8.246;2022-11-20T04:15:25;35.30;;;16.63;;
10701;SDS011;5402;50.004;8.246;2022-11-20T04:17:51;28.13;;;14.20;;
10701;SDS011;5402;50.004;8.246;2022-11-20T04:20:20;27.80;;;13.93;;
10701;SDS011;5402;50.004;8.246;2022-11-20T04:22:47;32.60;;;14.70;;
10701;SDS011;5402;50.004;8.246;2022-11-20T04:25:14;31.77;;;14.93;;
10701;SDS011;5402;50.004;8.246;2022-11-20T04:27:41;39.47;;;17.57;;
10701;SDS011;5402;50.004;8.246;2022-11-20T04:30:08;34.00;;;15.63;;
10701;SDS011;5402;50.004;8.246;2022-11-20T04:32:35;35.57;;;16.80;;
10701;SDS011;5402;50.004;8.246;2022-11-20T04:35:02;38.53;;;17.27;;
10701;SDS011;5402;50.004;8.246;2022-11-20T04:37:31;36.23;;;16.27;;
10701;SDS011;5402;50.004;8.246;2022-11-20T04:39:58;35.93;;;16.03;;
10701;SDS011;5402;50.004;8.246;2022-11-20T04:42:25;40.57;;;16.67;;
10701;SDS011;5402;50.004;8.246;2022-11-20T04:44:55;26.87;;;13.43;;
10701;SDS011;5402;50.004;8.246;2022-11-20T04:47:22;33.97;;;15.10;;
10701;SDS011;5402;50.004;8.246;2022-11-20T04:49:49;34.43;;;14.30;;
10701;SDS011;5402;50.004;8.246;2022-11-20T04:52:15;37.43;;;16.67;;
10701;SDS011;5402;50.004;8.246;2022-11-20T04:54:43;30.07;;;13.33;;
10701;SDS011;5402;50.004;8.246;2022-11-20T04:57:12;34.40;;;16.53;;
10701;SDS011;5402;50.004;8.246;2022-11-20T04:59:39;34.10;;;15.27;;
10701;SDS011;5402;50.004;8.246;2022-11-20T05:02:06;36.57;;;16.10;;
10701;SDS011;5402;50.004;8.246;2022-11-20T05:04:33;35.13;;;16.07;;
10701;SDS011;5402;50.004;8.246;2022-11-20T05:07:00;35.47;;;15.90;;
10701;SDS011;5402;50.004;8.246;2022-11-20T05:09:26;32.27;;;15.67;;
10701;SDS011;5402;50.004;8.246;2022-11-20T05:11:58;31.35;;;14.32;;
10701;SDS011;5402;50.004;8.246;2022-11-20T05:14:25;39.43;;;15.67;;
10701;SDS011;5402;50.004;8.246;2022-11-20T05:16:52;30.70;;;14.57;;
10701;SDS011;5402;50.004;8.246;2022-11-20T05:19:18;35.17;;;14.40;;
10701;SDS011;5402;50.004;8.246;2022-11-20T05:21:45;32.97;;;15.43;;
10701;SDS011;5402;50.004;8.246;2022-11-20T05:24:12;34.87;;;14.63;;
10701;SDS011;5402;50.004;8.246;2022-11-20T05:26:38;32.70;;;14.63;;
10701;SDS011;5402;50.004;8.246;2022-11-20T05:29:08;31.27;;;13.80;;
10701;SDS011;5402;50.004;8.246;2022-11-20T05:31:36;27.53;;;14.17;;
10701;SDS011;5402;50.004;8.246;2022-11-20T05:34:02;35.00;;;15.30;;
10701;SDS011;5402;50.004;8.246;2022-11-20T05:36:29;35.70;;;15.97;;
10701;SDS011;5402;50.004;8.246;2022-11-20T05:38:56;35.33;;;16.03;;
10701;SDS011;5402;50.004;8.246;2022-11-20T05:41:23;29.83;;;14.27;;
10701;SDS011;5402;50.004;8.246;2022-11-20T05:43:50;32.80;;;14.40;;
10701;SDS011;5402;50.004;8.246;2022-11-20T05:46:19;37.03;;;15.00;;
10701;SDS011;5402;50.004;8.246;2022-11-20T05:48:46;37.67;;;15.53;;
10701;SDS011;5402;50.004;8.246;2022-11-20T05:51:14;31.03;;;14.33;;
10701;SDS011;5402;50.004;8.246;2022-11-20T05:53:42;28.90;;;14.23;;
10701;SDS011;5402;50.004;8.246;2022-11-20T05:56:10;33.07;;;13.80;;
10701;SDS011;5402;50.004;8.246;2022-11-20T05:58:38;36.43;;;16.07;;
10701;SDS011;5402;50.004;8.246;2022-11-20T06:01:06;29.63;;;14.20;;
10701;SDS011;5402;50.004;8.246;2022-11-20T06:03:35;28.40;;;13.50;;
10701;SDS011;5402;50.004;8.246;2022-11-20T06:06:02;30.47;;;13.70;;
10701;SDS011;5402;50.004;8.246;2022-11-20T06:08:30;37.70;;;16.37;;
10701;SDS011;5402;50.004;8.246;2022-11-20T06:10:57;26.43;;;13.13;;
10701;SDS011;5402;50.004;8.246;2022-11-20T06:13:24;29.20;;;13.90;;
10701;SDS011;5402;50.004;8.246;2022-11-20T06:15:51;29.07;;;13.53;;
10701;SDS011;5402;50.004;8.246;2022-11-20T06:18:18;33.53;;;15.83;;
10701;SDS011;5402;50.004;8.246;2022-11-20T06:20:47;37.23;;;15.87;;
10701;SDS011;5402;50.004;8.246;2022-11-20T06:23:14;31.27;;;14.40;;
10701;SDS011;5402;50.004;8.246;2022-11-20T06:25:41;28.10;;;13.67;;
10701;SDS011;5402;50.004;8.246;2022-11-20T06:28:08;33.80;;;14.43;;
10701;SDS011;5402;50.004;8.246;2022-11-20T06:30:35;32.57;;;14.00;;
10701;SDS011;5402;50.004;8.246;2022-11-20T06:33:02;34.17;;;14.77;;
10701;SDS011;5402;50.004;8.246;2022-11-20T06:35:29;31.37;;;13.80;;
10701;SDS011;5402;50.004;8.246;2022-11-20T06:37:57;26.00;;;12.57;;
10701;SDS011;5402;50.004;8.246;2022-11-20T06:40:24;30.30;;;13.53;;
10701;SDS011;5402;50.004;8.246;2022-11-20T06:42:50;36.73;;;15.33;;
10701;SDS011;5402;50.004;8.246;2022-11-20T06:45:19;30.03;;;13.37;;
10701;SDS011;5402;50.004;8.246;2022-11-20T06:47:46;26.73;;;12.90;;
10701;SDS011;5402;50.004;8.246;2022-11-20T06:50:12;24.50;;;12.63;;
10701;SDS011;5402;50.004;8.246;2022-11-20T06:52:39;35.00;;;15.23;;
10701;SDS011;5402;50.004;8.246;2022-11-20T06:55:08;30.33;;;14.30;;
10701;SDS011;5402;50.004;8.246;2022-11-20T06:57:34;28.87;;;13.93;;
10701;SDS011;5402;50.004;8.246;2022-11-20T07:00:01;26.47;;;12.87;;
10701;SDS011;5402;50.004;8.246;2022-11-20T07:02:28;30.17;;;14.27;;
10701;SDS011;5402;50.004;8.246;2022-11-20T07:04:55;28.80;;;14.10;;
10701;SDS011;5402;50.004;8.246;2022-11-20T07:07:21;31.33;;;15.37;;
10701;SDS011;5402;50.004;8.246;2022-11-20T07:09:48;32.97;;;14.60;;
10701;SDS011;5402;50.004;8.246;2022-11-20T07:12:16;29.90;;;13.67;;
10701;SDS011;5402;50.004;8.246;2022-11-20T07:14:43;25.57;;;12.87;;
10701;SDS011;5402;50.004;8.246;2022-11-20T07:17:09;39.93;;;16.33;;
10701;SDS011;5402;50.004;8.246;2022-11-20T07:19:37;36.13;;;16.63;;
10701;SDS011;5402;50.004;8.246;2022-11-20T07:22:04;30.00;;;14.67;;
10701;SDS011;5402;50.004;8.246;2022-11-20T07:24:30;32.20;;;14.40;;
10701;SDS011;5402;50.004;8.246;2022-11-20T07:26:57;26.67;;;13.47;;
10701;SDS011;5402;50.004;8.246;2022-11-20T07:29:25;26.60;;;12.90;;
10701;SDS011;5402;50.004;8.246;2022-11-20T07:31:52;24.20;;;11.87;;
10701;SDS011;5402;50.004;8.246;2022-11-20T07:34:20;26.10;;;13.80;;
10701;SDS011;5402;50.004;8.246;2022-11-20T07:36:47;36.67;;;16.00;;
10701;SDS011;5402;50.004;8.246;2022-11-20T07:39:14;28.33;;;13.83;;
10701;SDS011;5402;50.004;8.246;2022-11-20T07:41:40;32.27;;;15.23;;
10701;SDS011;5402;50.004;8.246;2022-11-20T07:44:07;36.00;;;15.33;;
10701;SDS011;5402;50.004;8.246;2022-11-20T07:46:35;34.93;;;14.97;;
10701;SDS011;5402;50.004;8.246;2022-11-20T07:49:02;34.70;;;15.07;;
10701;SDS011;5402;50.004;8.246;2022-11-20T07:51:28;31.40;;;13.93;;
10701;SDS011;5402;50.004;8.246;2022-11-20T07:53:55;34.73;;;16.00;;
10701;SDS011;5402;50.004;8.246;2022-11-20T07:56:22;43.07;;;16.97;;
10701;SDS011;5402;50.004;8.246;2022-11-20T07:58:49;32.90;;;16.23;;
10701;SDS011;5402;50.004;8.246;2022-11-20T08:01:16;33.90;;;16.17;;
10701;SDS011;5402;50.004;8.246;2022-11-20T08:03:44;27.30;;;14.40;;
10701;SDS011;5402;50.004;8.246;2022-11-20T08:06:10;34.30;;;14.97;;
10701;SDS011;5402;50.004;8.246;2022-11-20T08:08:37;34.90;;;15.63;;
10701;SDS011;5402;50.004;8.246;2022-11-20T08:11:04;37.23;;;16.00;;
10701;SDS011;5402;50.004;8.246;2022-11-20T08:13:48;35.03;;;15.37;;
10701;SDS011;5402;50.004;8.246;2022-11-20T08:16:42;35.97;;;15.73;;
10701;SDS011;5402;50.004;8.246;2022-11-20T08:19:11;23.47;;;11.67;;
10701;SDS011;5402;50.004;8.246;2022-11-20T08:21:38;30.43;;;14.00;;
10701;SDS011;5402;50.004;8.246;2022-11-20T08:24:05;38.73;;;16.37;;
10701;SDS011;5402;50.004;8.246;2022-11-20T08:26:33;40.93;;;16.27;;
10701;SDS011;5402;50.004;8.246;2022-11-20T08:29:00;37.57;;;17.50;;
10701;SDS011;5402;50.004;8.246;2022-11-20T08:31:27;39.53;;;16.57;;
10701;SDS011;5402;50.004;8.246;2022-11-20T08:33:54;35.03;;;16.77;;
10701;SDS011;5402;50.004;8.246;2022-11-20T08:36:22;32.30;;;15.50;;
10701;SDS011;5402;50.004;8.246;2022-11-20T08:38:50;32.83;;;14.60;;
10701;SDS011;5402;50.004;8.246;2022-11-20T08:41:18;32.07;;;15.17;;
10701;SDS011;5402;50.004;8.246;2022-11-20T08:43:51;33.00;;;14.93;;
10701;SDS011;5402;50.004;8.246;2022-11-20T08:46:21;30.40;;;14.57;;
10701;SDS011;5402;50.004;8.246;2022-11-20T08:48:48;29.73;;;14.70;;
10701;SDS011;5402;50.004;8.246;2022-11-20T08:51:15;33.97;;;16.00;;
10701;SDS011;5402;50.004;8.246;2022-11-20T08:53:44;30.40;;;15.60;;
10701;SDS011;5402;50.004;8.246;2022-11-20T08:56:10;30.33;;;15.00;;
10701;SDS011;5402;50.004;8.246;2022-11-20T08:58:38;29.27;;;13.87;;
10701;SDS011;5402;50.004;8.246;2022-11-20T09:01:05;35.97;;;16.37;;
10701;SDS011;5402;50.004;8.246;2022-11-20T09:03:31;28.37;;;13.73;;
10701;SDS011;5402;50.004;8.246;2022-11-20T09:05:58;33.07;;;15.93;;
10701;SDS011;5402;50.004;8.246;2022-11-20T09:08:26;36.63;;;16.43;;
10701;SDS011;5402;50.004;8.246;2022-11-20T09:10:55;30.87;;;14.13;;
10701;SDS011;5402;50.004;8.246;2022-11-20T09:13:23;33.40;;;15.77;;
10701;SDS011;5402;50.004;8.246;2022-11-20T09:15:52;36.37;;;17.40;;
10701;SDS011;5402;50.004;8.246;2022-11-20T09:18:19;37.50;;;16.43;;
10701;SDS011;5402;50.004;8.246;2022-11-20T09:20:46;38.60;;;17.13;;
10701;SDS011;5402;50.004;8.246;2022-11-20T09:23:13;36.00;;;16.37;;
10701;SDS011;5402;50.004;8.246;2022-11-20T09:25:40;36.57;;;16.87;;
10701;SDS011;5402;50.004;8.246;2022-11-20T09:28:08;38.10;;;19.63;;
10701;SDS011;5402;50.004;8.246;2022-11-20T09:30:35;39.23;;;17.63;;
10701;SDS011;5402;50.004;8.246;2022-11-20T09:33:03;36.10;;;16.57;;
10701;SDS011;5402;50.004;8.246;2022-11-20T09:35:31;29.23;;;14.33;;
10701;SDS011;5402;50.004;8.246;2022-11-20T09:37:57;31.17;;;16.10;;
10701;SDS011;5402;50.004;8.246;2022-11-20T09:40:25;32.00;;;15.97;;
10701;SDS011;5402;50.004;8.246;2022-11-20T09:42:54;32.00;;;15.57;;
10701;SDS011;5402;50.004;8.246;2022-11-20T09:45:28;29.83;;;14.60;;
10701;SDS011;5402;50.004;8.246;2022-11-20T09:48:12;30.47;;;14.63;;
10701;SDS011;5402;50.004;8.246;2022-11-20T09:50:47;33.37;;;13.87;;
10701;SDS011;5402;50.004;8.246;2022-11-20T09:53:21;31.73;;;14.33;;
10701;SDS011;5402;50.004;8.246;2022-11-20T09:55:55;32.27;;;14.70;;
10701;SDS011;5402;50.004;8.246;2022-11-20T09:58:25;26.07;;;12.83;;
10701;SDS011;5402;50.004;8.246;2022-11-20T10:00:59;26.17;;;13.83;;
10701;SDS011;5402;50.004;8.246;2022-11-20T10:03:35;28.83;;;13.93;;
10701;SDS011;5402;50.004;8.246;2022-11-20T10:06:08;33.90;;;15.67;;
10701;SDS011;5402;50.004;8.246;2022-11-20T10:08:42;30.37;;;14.87;;
10701;SDS011;5402;50.004;8.246;2022-11-20T10:11:13;30.43;;;15.50;;
10701;SDS011;5402;50.004;8.246;2022-11-20T10:13:46;31.63;;;14.83;;
10701;SDS011;5402;50.004;8.246;2022-11-20T10:16:24;31.90;;;15.07;;
10701;SDS011;5402;50.004;8.246;2022-11-20T10:19:00;28.50;;;15.10;;
10701;SDS011;5402;50.004;8.246;2022-11-20T10:21:35;33.33;;;15.83;;
10701;SDS011;5402;50.004;8.246;2022-11-20T10:24:24;32.73;;;14.73;;
10701;SDS011;5402;50.004;8.246;2022-11-20T10:27:02;31.50;;;14.17;;
10701;SDS011;5402;50.004;8.246;2022-11-20T10:29:36;32.07;;;14.27;;
10701;SDS011;5402;50.004;8.246;2022-11-20T10:32:09;29.67;;;14.60;;
10701;SDS011;5402;50.004;8.246;2022-11-20T10:34:44;36.67;;;15.43;;
10701;SDS011;5402;50.004;8.246;2022-11-20T10:37:17;31.70;;;15.10;;
10701;SDS011;5402;50.004;8.246;2022-11-20T10:39:50;32.47;;;14.97;;
10701;SDS011;5402;50.004;8.246;2022-11-20T10:42:25;36.30;;;15.57;;
10701;SDS011;5402;50.004;8.246;2022-11-20T10:44:58;27.33;;;13.47;;
10701;SDS011;5402;50.004;8.246;2022-11-20T10:47:37;30.20;;;16.10;;
10701;SDS011;5402;50.004;8.246;2022-11-20T10:50:11;27.00;;;13.10;;
10701;SDS011;5402;50.004;8.246;2022-11-20T10:52:46;26.90;;;13.17;;
10701;SDS011;5402;50.004;8.246;2022-11-20T10:55:25;29.93;;;14.93;;
10701;SDS011;5402;50.004;8.246;2022-11-20T10:58:00;30.20;;;15.70;;
10701;SDS011;5402;50.004;8.246;2022-11-20T11:00:34;30.03;;;14.67;;
10701;SDS011;5402;50.004;8.246;2022-11-20T11:03:02;32.80;;;15.27;;
10701;SDS011;5402;50.004;8.246;2022-11-20T11:05:48;26.60;;;12.90;;
10701;SDS011;5402;50.004;8.246;2022-11-20T11:08:21;28.03;;;12.53;;
10701;SDS011;5402;50.004;8.246;2022-11-20T11:10:51;31.47;;;14.93;;
10701;SDS011;5402;50.004;8.246;2022-11-20T11:13:20;33.03;;;15.23;;
10701;SDS011;5402;50.004;8.246;2022-11-20T11:15:48;29.60;;;13.03;;
10701;SDS011;5402;50.004;8.246;2022-11-20T11:18:24;36.00;;;15.30;;
10701;SDS011;5402;50.004;8.246;2022-11-20T11:20:52;29.90;;;13.83;;
10701;SDS011;5402;50.004;8.246;2022-11-20T11:23:29;30.83;;;14.60;;
10701;SDS011;5402;50.004;8.246;2022-11-20T11:26:00;32.60;;;15.50;;
10701;SDS011;5402;50.004;8.246;2022-11-20T11:28:29;27.73;;;14.43;;
10701;SDS011;5402;50.004;8.246;2022-11-20T11:30:56;37.40;;;16.17;;
10701;SDS011;5402;50.004;8.246;2022-11-20T11:33:25;30.47;;;14.20;;
10701;SDS011;5402;50.004;8.246;2022-11-20T11:35:53;31.73;;;15.67;;
10701;SDS011;5402;50.004;8.246;2022-11-20T11:38:28;29.47;;;15.17;;
10701;SDS011;5402;50.004;8.246;2022-11-20T11:40:57;30.67;;;15.13;;
10701;SDS011;5402;50.004;8.246;2022-11-20T11:43:25;27.13;;;13.27;;
10701;SDS011;5402;50.004;8.246;2022-11-20T11:46:22;25.00;;;13.13;;
10701;SDS011;5402;50.004;8.246;2022-11-20T11:48:58;25.47;;;13.90;;
10701;SDS011;5402;50.004;8.246;2022-11-20T11:51:28;26.50;;;14.07;;
10701;SDS011;5402;50.004;8.246;2022-11-20T11:54:03;26.13;;;13.90;;
10701;SDS011;5402;50.004;8.246;2022-11-20T11:56:46;25.50;;;13.33;;
10701;SDS011;5402;50.004;8.246;2022-11-20T11:59:16;26.10;;;13.80;;
10701;SDS011;5402;50.004;8.246;2022-11-20T12:02:03;25.90;;;13.97;;
10701;SDS011;5402;50.004;8.246;2022-11-20T12:04:43;23.30;;;12.80;;
10701;SDS011;5402;50.004;8.246;2022-11-20T12:07:19;27.47;;;13.33;;
10701;SDS011;5402;50.004;8.246;2022-11-20T12:09:57;24.40;;;13.50;;
10701;SDS011;5402;50.004;8.246;2022-11-20T12:12:29;27.03;;;13.37;;
10701;SDS011;5402;50.004;8.246;2022-11-20T12:15:00;25.40;;;13.33;;
10701;SDS011;5402;50.004;8.246;2022-11-20T12:17:30;25.00;;;13.13;;
10701;SDS011;5402;50.004;8.246;2022-11-20T12:19:59;20.93;;;12.33;;
10701;SDS011;5402;50.004;8.246;2022-11-20T12:23:35;25.23;;;13.57;;
10701;SDS011;5402;50.004;8.246;2022-11-20T12:25:38;23.37;;;11.63;;
10701;SDS011;5402;50.004;8.246;2022-11-20T12:28:11;27.03;;;12.70;;
10701;SDS011;5402;50.004;8.246;2022-11-20T12:31:05;24.50;;;13.57;;
10701;SDS011;5402;50.004;8.246;2022-11-20T12:33:55;22.93;;;12.30;;
10701;SDS011;5402;50.004;8.246;2022-11-20T12:36:39;23.30;;;12.60;;
10701;SDS011;5402;50.004;8.246;2022-11-20T12:39:15;24.47;;;13.30;;
10701;SDS011;5402;50.004;8.246;2022-11-20T12:42:09;21.60;;;11.43;;
10701;SDS011;5402;50.004;8.246;2022-11-20T12:45:18;22.17;;;11.47;;
10701;SDS011;5402;50.004;8.246;2022-11-20T12:48:03;19.23;;;11.23;;
10701;SDS011;5402;50.004;8.246;2022-11-20T12:51:08;22.70;;;12.47;;
10701;SDS011;5402;50.004;8.246;2022-11-20T12:53:51;20.47;;;11.87;;
10701;SDS011;5402;50.004;8.246;2022-11-20T12:56:32;23.20;;;12.30;;
10701;SDS011;5402;50.004;8.246;2022-11-20T12:59:13;26.77;;;13.67;;
10701;SDS011;5402;50.004;8.246;2022-11-20T13:02:05;24.20;;;12.43;;
10701;SDS011;5402;50.004;8.246;2022-11-20T13:04:55;23.07;;;12.50;;
10701;SDS011;5402;50.004;8.246;2022-11-20T13:07:43;24.57;;;12.33;;
10701;SDS011;5402;50.004;8.246;2022-11-20T13:10:18;23.20;;;12.30;;
10701;SDS011;5402;50.004;8.246;2022-11-20T13:12:51;21.60;;;11.47;;
10701;SDS011;5402;50.004;8.246;2022-11-20T13:15:36;19.77;;;10.87;;
10701;SDS011;5402;50.004;8.246;2022-11-20T13:18:13;18.93;;;10.93;;
10701;SDS011;5402;50.004;8.246;2022-11-20T13:20:41;20.97;;;12.00;;
10701;SDS011;5402;50.004;8.246;2022-11-20T13:23:22;20.20;;;11.23;;
10701;SDS011;5402;50.004;8.246;2022-11-20T13:25:51;21.77;;;12.20;;
10701;SDS011;5402;50.004;8.246;2022-11-20T13:28:35;16.57;;;10.53;;
10701;SDS011;5402;50.004;8.246;2022-11-20T13:31:02;20.30;;;11.17;;
10701;SDS011;5402;50.004;8.246;2022-11-20T13:33:43;18.60;;;10.80;;
10701;SDS011;5402;50.004;8.246;2022-11-20T13:36:26;17.57;;;9.97;;
10701;SDS011;5402;50.004;8.246;2022-11-20T13:38:57;17.50;;;10.00;;
10701;SDS011;5402;50.004;8.246;2022-11-20T13:44:42;17.00;;;8.87;;
10701;SDS011;5402;50.004;8.246;2022-11-20T13:47:19;20.47;;;11.87;;
10701;SDS011;5402;50.004;8.246;2022-11-20T13:49:51;23.10;;;12.17;;
10701;SDS011;5402;50.004;8.246;2022-11-20T13:52:28;23.77;;;13.13;;
10701;SDS011;5402;50.004;8.246;2022-11-20T13:55:11;23.87;;;12.60;;
10701;SDS011;5402;50.004;8.246;2022-11-20T13:57:59;24.00;;;13.17;;
10701;SDS011;5402;50.004;8.246;2022-11-20T14:00:41;22.23;;;12.17;;
10701;SDS011;5402;50.004;8.246;2022-11-20T14:03:13;29.77;;;18.83;;
10701;SDS011;5402;50.004;8.246;2022-11-20T14:05:49;18.57;;;11.80;;
10701;SDS011;5402;50.004;8.246;2022-11-20T14:08:23;24.97;;;12.80;;
10701;SDS011;5402;50.004;8.246;2022-11-20T14:11:03;27.07;;;16.03;;
10701;SDS011;5402;50.004;8.246;2022-11-20T14:13:49;24.93;;;15.50;;
10701;SDS011;5402;50.004;8.246;2022-11-20T14:16:20;19.63;;;11.60;;
10701;SDS011;5402;50.004;8.246;2022-11-20T14:18:48;18.93;;;10.30;;
10701;SDS011;5402;50.004;8.246;2022-11-20T14:21:21;19.93;;;11.43;;
10701;SDS011;5402;50.004;8.246;2022-11-20T14:23:52;22.10;;;11.17;;
10701;SDS011;5402;50.004;8.246;2022-11-20T14:26:20;21.17;;;10.77;;
10701;SDS011;5402;50.004;8.246;2022-11-20T14:28:53;19.40;;;10.93;;
10701;SDS011;5402;50.004;8.246;2022-11-20T14:31:23;19.50;;;11.07;;
10701;SDS011;5402;50.004;8.246;2022-11-20T14:33:51;20.63;;;11.33;;
10701;SDS011;5402;50.004;8.246;2022-11-20T14:36:19;24.27;;;14.03;;
10701;SDS011;5402;50.004;8.246;2022-11-20T14:38:48;21.20;;;12.33;;
10701;SDS011;5402;50.004;8.246;2022-11-20T14:41:21;19.27;;;10.87;;
10701;SDS011;5402;50.004;8.246;2022-11-20T14:43:52;21.33;;;11.03;;
10701;SDS011;5402;50.004;8.246;2022-11-20T14:46:24;20.50;;;11.33;;
10701;SDS011;5402;50.004;8.246;2022-11-20T14:48:53;20.23;;;10.73;;
10701;SDS011;5402;50.004;8.246;2022-11-20T14:51:31;20.13;;;11.07;;
10701;SDS011;5402;50.004;8.246;2022-11-20T14:54:09;19.27;;;11.70;;
10701;SDS011;5402;50.004;8.246;2022-11-20T14:56:53;21.77;;;11.47;;
10701;SDS011;5402;50.004;8.246;2022-11-20T14:59:22;20.90;;;11.20;;